createdAt,value
2024-04-25T00:01:02.904Z,81.68
2024-04-25T00:03:30.251Z,60.40
2024-04-25T00:05:57.613Z,48.13
2024-04-25T00:08:24.995Z,25.73
2024-04-25T00:10:53.419Z,16.00
2024-04-25T00:13:27.473Z,13.05
2024-04-25T00:15:56.341Z,12.45
2024-04-25T00:18:24.338Z,11.18
2024-04-25T00:20:52.228Z,10.30
2024-04-25T00:23:19.623Z,15.07
2024-04-25T00:25:48.007Z,11.77
2024-04-25T00:28:15.769Z,11.48
2024-04-25T00:30:43.137Z,10.32
2024-04-25T00:33:10.673Z,10.45
2024-04-25T00:35:38.099Z,13.98
2024-04-25T00:38:05.743Z,9.32
2024-04-25T00:40:33.392Z,9.82
2024-04-25T00:43:01.998Z,9.50
2024-04-25T00:45:29.514Z,9.77
2024-04-25T00:47:57.269Z,9.20
2024-04-25T00:50:25.121Z,12.18
2024-04-25T00:52:52.830Z,9.15
2024-04-25T00:55:20.729Z,10.45
2024-04-25T00:57:49.421Z,9.68
2024-04-25T01:00:18.350Z,10.95
2024-04-25T01:02:46.667Z,10.57
2024-04-25T01:05:14.921Z,11.07
2024-04-25T01:07:42.252Z,8.98
2024-04-25T01:10:10.889Z,10.80
2024-04-25T01:12:38.388Z,10.40
2024-04-25T01:15:06.051Z,10.23
2024-04-25T01:17:33.791Z,11.88
2024-04-25T01:20:02.077Z,10.15
2024-04-25T01:22:36.850Z,9.73
2024-04-25T01:25:07.441Z,10.43
2024-04-25T01:27:35.631Z,10.70
2024-04-25T01:30:03.692Z,9.13
2024-04-25T01:32:32.257Z,9.77
2024-04-25T01:35:00.717Z,9.48
2024-04-25T01:37:28.095Z,9.52
2024-04-25T01:39:55.389Z,9.98
2024-04-25T01:42:22.892Z,10.95
2024-04-25T01:44:50.217Z,9.75
2024-04-25T01:47:17.622Z,11.63
2024-04-25T01:49:45.182Z,10.35
2024-04-25T01:52:12.641Z,9.35
2024-04-25T01:54:39.864Z,10.15
2024-04-25T01:57:07.203Z,9.55
2024-04-25T01:59:34.972Z,9.85
2024-04-25T02:02:02.409Z,9.95
2024-04-25T02:04:30.499Z,10.20
2024-04-25T02:06:57.790Z,9.68
2024-04-25T02:09:25.107Z,9.60
2024-04-25T02:11:52.541Z,8.93
2024-04-25T02:14:20.040Z,9.00
2024-04-25T02:16:48.264Z,10.27
2024-04-25T02:19:15.679Z,10.18
2024-04-25T02:22:03.016Z,10.93
2024-04-25T02:24:50.280Z,10.60
2024-04-25T02:27:18.286Z,8.35
2024-04-25T02:29:45.683Z,8.70
2024-04-25T02:32:13.186Z,8.75
2024-04-25T02:34:40.565Z,9.32
2024-04-25T02:37:07.864Z,9.85
2024-04-25T02:39:35.239Z,9.48
2024-04-25T02:42:02.474Z,9.38
2024-04-25T02:44:29.945Z,9.82
2024-04-25T02:46:57.509Z,8.80
2024-04-25T02:49:25.299Z,8.38
2024-04-25T02:51:52.696Z,9.23
2024-04-25T02:54:19.935Z,10.80
2024-04-25T02:56:47.426Z,9.85
2024-04-25T02:59:14.841Z,8.75
2024-04-25T03:01:42.147Z,10.00
2024-04-25T03:04:12.763Z,9.95
2024-04-25T03:06:40.493Z,11.38
2024-04-25T03:09:10.408Z,9.70
2024-04-25T03:11:38.223Z,9.45
2024-04-25T03:14:05.717Z,9.57
2024-04-25T03:16:33.828Z,11.13
2024-04-25T03:19:01.172Z,7.57
2024-04-25T03:21:28.632Z,9.80
2024-04-25T03:23:55.833Z,8.32
2024-04-25T03:26:23.207Z,8.13
2024-04-25T03:28:50.462Z,9.60
2024-04-25T03:31:20.960Z,7.65
2024-04-25T03:33:49.451Z,9.05
2024-04-25T03:36:16.635Z,9.30
2024-04-25T03:38:44.342Z,9.52
2024-04-25T03:41:17.086Z,8.27
2024-04-25T03:43:45.231Z,7.90
2024-04-25T03:46:13.070Z,9.20
2024-04-25T03:48:40.369Z,8.75
2024-04-25T03:51:07.710Z,9.00
2024-04-25T03:53:35.154Z,8.75
2024-04-25T03:56:02.774Z,8.02
2024-04-25T03:58:30.118Z,8.05
2024-04-25T04:00:57.776Z,7.13
2024-04-25T04:03:25.210Z,6.72
2024-04-25T04:05:52.629Z,6.75
2024-04-25T04:08:21.618Z,7.57
2024-04-25T04:10:49.246Z,8.30
2024-04-25T04:13:16.674Z,7.65
2024-04-25T04:15:44.097Z,9.00
2024-04-25T04:18:11.565Z,7.50
2024-04-25T04:20:38.953Z,18.77
2024-04-25T04:23:06.476Z,12.18
2024-04-25T04:25:33.691Z,11.70
2024-04-25T04:28:01.017Z,14.90
2024-04-25T04:30:28.339Z,12.20
2024-04-25T04:32:55.811Z,11.95
2024-04-25T04:35:23.191Z,12.20
2024-04-25T04:37:50.724Z,14.60
2024-04-25T04:40:18.013Z,16.08
2024-04-25T04:42:45.346Z,14.50
2024-04-25T04:45:12.674Z,15.82
2024-04-25T04:47:40.656Z,19.40
2024-04-25T04:50:08.451Z,14.50
2024-04-25T04:52:36.234Z,15.65
2024-04-25T04:55:03.556Z,15.40
2024-04-25T04:57:30.983Z,16.13
2024-04-25T04:59:58.254Z,12.55
2024-04-25T05:02:25.708Z,12.27
2024-04-25T05:04:53.182Z,14.20
2024-04-25T05:07:20.512Z,11.30
2024-04-25T05:09:47.842Z,11.23
2024-04-25T05:12:15.493Z,11.02
2024-04-25T05:14:42.972Z,11.70
2024-04-25T05:17:10.423Z,15.38
2024-04-25T05:19:37.781Z,23.95
2024-04-25T05:22:05.425Z,17.73
2024-04-25T05:24:32.775Z,13.23
2024-04-25T05:27:00.143Z,14.32
2024-04-25T05:29:27.704Z,15.38
2024-04-25T05:31:55.130Z,12.00
2024-04-25T05:34:22.470Z,9.30
2024-04-25T05:36:50.084Z,9.88
2024-04-25T05:39:17.408Z,11.15
2024-04-25T05:41:44.799Z,12.90
2024-04-25T05:44:12.308Z,12.55
2024-04-25T05:46:39.831Z,11.02
2024-04-25T05:49:07.129Z,10.68
2024-04-25T05:51:34.456Z,9.43
2024-04-25T05:54:01.808Z,6.88
2024-04-25T05:56:29.088Z,8.15
2024-04-25T05:58:58.449Z,8.15
2024-04-25T06:01:25.880Z,6.63
2024-04-25T06:03:53.457Z,7.50
2024-04-25T06:06:21.062Z,7.95
2024-04-25T06:08:48.388Z,7.45
2024-04-25T06:11:16.088Z,7.72
2024-04-25T06:13:43.492Z,6.57
2024-04-25T06:16:11.569Z,7.32
2024-04-25T06:18:39.237Z,9.15
2024-04-25T06:21:06.484Z,8.00
2024-04-25T06:23:35.747Z,7.85
2024-04-25T06:26:03.191Z,6.32
2024-04-25T06:28:30.461Z,6.38
2024-04-25T06:31:01.105Z,7.93
2024-04-25T06:33:28.952Z,7.55
2024-04-25T06:35:56.208Z,6.95
2024-04-25T06:38:23.687Z,6.72
2024-04-25T06:40:52.367Z,6.97
2024-04-25T06:43:19.635Z,9.23
2024-04-25T06:45:47.109Z,6.80
2024-04-25T06:48:14.514Z,7.32
2024-04-25T06:50:43.670Z,8.35
2024-04-25T06:53:11.636Z,8.45
2024-04-25T06:55:39.371Z,7.38
2024-04-25T06:58:06.623Z,6.40
2024-04-25T07:00:34.006Z,7.55
2024-04-25T07:03:01.487Z,6.22
2024-04-25T07:05:28.992Z,5.93
2024-04-25T07:07:57.836Z,6.22
2024-04-25T07:10:25.448Z,6.70
2024-04-25T07:12:52.882Z,6.40
2024-04-25T07:15:22.726Z,7.90
2024-04-25T07:17:50.257Z,9.70
2024-04-25T07:20:17.747Z,6.57
2024-04-25T07:22:45.191Z,7.15
2024-04-25T07:25:15.428Z,9.15
2024-04-25T07:27:42.850Z,5.50
2024-04-25T07:30:11.173Z,5.82
2024-04-25T07:32:40.782Z,7.07
2024-04-25T07:35:08.491Z,5.53
2024-04-25T07:37:38.017Z,6.28
2024-04-25T07:40:06.529Z,5.47
2024-04-25T07:42:33.883Z,12.45
2024-04-25T07:45:02.857Z,5.32
2024-04-25T07:47:31.058Z,4.88
2024-04-25T07:49:59.728Z,8.82
2024-04-25T07:52:30.140Z,4.63
2024-04-25T07:54:57.783Z,6.28
2024-04-25T07:57:25.260Z,6.97
2024-04-25T07:59:55.014Z,7.53
2024-04-25T08:02:23.514Z,10.25
2024-04-25T08:04:51.175Z,6.18
2024-04-25T08:07:18.421Z,4.93
2024-04-25T08:09:45.820Z,4.65
2024-04-25T08:12:13.220Z,4.70
2024-04-25T08:14:45.646Z,5.00
2024-04-25T08:17:14.072Z,3.75
2024-04-25T08:19:41.386Z,3.80
2024-04-25T08:22:09.065Z,4.55
2024-04-25T08:24:36.372Z,4.53
2024-04-25T08:27:04.065Z,4.88
2024-04-25T08:29:31.290Z,4.30
2024-04-25T08:31:58.667Z,4.72
2024-04-25T08:34:26.139Z,4.03
2024-04-25T08:36:53.555Z,4.57
2024-04-25T08:39:20.942Z,5.90
2024-04-25T08:41:49.782Z,4.80
2024-04-25T08:44:17.766Z,3.95
2024-04-25T08:46:47.451Z,3.92
2024-04-25T08:49:17.795Z,4.53
2024-04-25T08:51:46.273Z,4.32
2024-04-25T08:54:16.810Z,3.65
2024-04-25T08:56:44.399Z,2.92
2024-04-25T08:59:11.882Z,2.55
2024-04-25T09:01:41.312Z,2.88
2024-04-25T09:04:15.682Z,2.78
2024-04-25T09:09:11.822Z,2.72
2024-04-25T09:11:39.935Z,3.08
2024-04-25T09:14:07.466Z,3.78
2024-04-25T09:16:37.884Z,3.55
2024-04-25T09:19:05.525Z,2.50
2024-04-25T09:21:32.861Z,3.72
2024-04-25T09:24:01.495Z,2.25
2024-04-25T09:26:31.944Z,2.72
2024-04-25T09:29:00.635Z,2.08
2024-04-25T09:31:28.494Z,2.50
2024-04-25T09:33:58.618Z,2.42
2024-04-25T09:36:26.098Z,2.85
2024-04-25T09:38:53.702Z,2.58
2024-04-25T09:41:21.969Z,2.42
2024-04-25T09:43:51.592Z,3.15
2024-04-25T09:46:26.653Z,2.67
2024-04-25T09:48:55.889Z,2.22
2024-04-25T09:51:32.027Z,3.38
2024-04-25T09:54:03.381Z,2.92
2024-04-25T09:56:32.522Z,1.55
2024-04-25T09:59:23.263Z,2.60
2024-04-25T10:01:53.344Z,1.70
2024-04-25T10:04:22.688Z,1.50
2024-04-25T10:06:50.120Z,1.83
2024-04-25T10:09:18.221Z,1.95
2024-04-25T10:11:49.931Z,2.25
2024-04-25T10:14:26.920Z,2.80
2024-04-25T10:16:54.648Z,1.20
2024-04-25T10:19:32.594Z,1.40
2024-04-25T10:22:00.045Z,2.15
2024-04-25T10:24:27.329Z,1.85
2024-04-25T10:26:54.771Z,1.25
2024-04-25T10:29:38.276Z,1.50
2024-04-25T10:32:06.131Z,5.28
2024-04-25T10:34:33.376Z,2.20
2024-04-25T10:37:01.151Z,2.25
2024-04-25T10:39:28.521Z,1.95
2024-04-25T10:41:56.006Z,1.60
2024-04-25T10:44:23.476Z,2.08
2024-04-25T10:46:51.016Z,1.83
2024-04-25T10:49:18.629Z,3.50
2024-04-25T10:51:46.260Z,2.25
2024-04-25T10:54:14.721Z,4.22
2024-04-25T10:56:42.546Z,3.03
2024-04-25T10:59:09.878Z,1.85
2024-04-25T11:01:37.221Z,3.90
2024-04-25T11:04:06.268Z,2.92
2024-04-25T11:06:36.787Z,1.90
2024-04-25T11:09:05.023Z,2.13
2024-04-25T11:11:32.524Z,2.35
2024-04-25T11:13:59.906Z,2.17
2024-04-25T11:16:38.240Z,2.60
2024-04-25T11:19:13.840Z,2.17
2024-04-25T11:21:47.083Z,2.75
2024-04-25T11:24:19.275Z,2.00
2024-04-25T11:26:48.764Z,2.25
2024-04-25T11:29:17.507Z,3.05
2024-04-25T11:31:46.461Z,2.10
2024-04-25T11:34:29.353Z,3.15
2024-04-25T11:37:02.957Z,2.92
2024-04-25T11:39:32.319Z,3.73
2024-04-25T11:42:07.963Z,4.10
2024-04-25T11:44:35.761Z,2.00
2024-04-25T11:47:03.574Z,1.73
2024-04-25T11:49:31.726Z,2.15
2024-04-25T11:51:59.122Z,2.90
2024-04-25T11:54:26.709Z,2.85
2024-04-25T11:56:55.837Z,4.00
2024-04-25T11:59:23.374Z,2.28
2024-04-25T12:01:54.410Z,3.10
2024-04-25T12:04:22.446Z,1.42
2024-04-25T12:06:49.993Z,2.60
2024-04-25T12:09:17.483Z,2.47
2024-04-25T12:11:49.555Z,1.85
2024-04-25T12:16:46.940Z,2.47
2024-04-25T12:19:14.212Z,2.20
2024-04-25T12:21:41.664Z,2.83
2024-04-25T12:24:09.112Z,3.25
2024-04-25T12:26:36.719Z,2.30
2024-04-25T12:29:04.127Z,2.78
2024-04-25T12:31:31.683Z,2.80
2024-04-25T12:34:01.448Z,2.15
2024-04-25T12:36:29.036Z,3.80
2024-04-25T12:38:56.314Z,3.13
2024-04-25T12:41:23.827Z,2.75
2024-04-25T12:43:53.713Z,2.22
2024-04-25T12:46:21.146Z,2.63
2024-04-25T12:48:48.533Z,2.60
2024-04-25T12:51:16.044Z,3.53
2024-04-25T12:53:43.600Z,3.80
2024-04-25T12:56:11.351Z,3.88
2024-04-25T12:58:42.356Z,2.45
2024-04-25T13:01:10.918Z,3.08
2024-04-25T13:03:38.618Z,2.70
2024-04-25T13:06:06.362Z,2.53
2024-04-25T13:08:33.872Z,1.63
2024-04-25T13:11:01.494Z,2.20
2024-04-25T13:13:32.795Z,1.60
2024-04-25T13:16:01.090Z,1.70
2024-04-25T13:18:29.154Z,2.47
2024-04-25T13:20:58.537Z,3.28
2024-04-25T13:23:27.672Z,2.25
2024-04-25T13:25:55.110Z,3.72
2024-04-25T13:28:22.398Z,2.70
2024-04-25T13:30:49.789Z,1.85
2024-04-25T13:33:17.829Z,1.60
2024-04-25T13:35:45.417Z,1.95
2024-04-25T13:38:13.067Z,4.75
2024-04-25T13:40:40.390Z,2.17
2024-04-25T13:43:12.999Z,2.78
2024-04-25T13:45:40.423Z,2.50
2024-04-25T13:48:08.509Z,2.65
2024-04-25T13:50:36.011Z,2.33
2024-04-25T13:53:03.504Z,4.75
2024-04-25T13:55:30.990Z,2.95
2024-04-25T13:57:58.386Z,3.30
2024-04-25T14:00:25.966Z,2.67
2024-04-25T14:02:53.825Z,3.83
2024-04-25T14:05:21.777Z,4.45
2024-04-25T14:07:52.273Z,2.95
2024-04-25T14:10:19.815Z,3.03
2024-04-25T14:12:48.072Z,3.67
2024-04-25T14:15:15.564Z,4.20
2024-04-25T14:17:44.510Z,3.55
2024-04-25T14:20:12.594Z,2.38
2024-04-25T14:22:40.978Z,2.38
2024-04-25T14:25:28.991Z,2.53
2024-04-25T14:28:22.244Z,3.15
2024-04-25T14:30:49.731Z,2.92
2024-04-25T14:33:17.541Z,3.63
2024-04-25T14:35:45.607Z,2.00
2024-04-25T14:38:13.913Z,5.00
2024-04-25T14:40:41.445Z,3.50
2024-04-25T14:43:09.098Z,3.05
2024-04-25T14:45:37.132Z,3.65
2024-04-25T14:48:04.877Z,3.53
2024-04-25T14:50:32.342Z,3.00
2024-04-25T14:52:59.888Z,3.58
2024-04-25T14:55:27.195Z,3.65
2024-04-25T14:57:54.623Z,3.67
2024-04-25T15:00:21.988Z,9.82
2024-04-25T15:02:49.888Z,3.92
2024-04-25T15:05:17.479Z,3.90
2024-04-25T15:07:44.892Z,3.28
2024-04-25T15:10:13.774Z,4.60
2024-04-25T15:12:43.285Z,3.67
2024-04-25T15:15:15.466Z,3.40
2024-04-25T15:17:52.459Z,3.92
2024-04-25T15:20:21.878Z,6.25
2024-04-25T15:22:49.412Z,3.85
2024-04-25T15:25:16.909Z,3.47
2024-04-25T15:27:44.285Z,3.25
2024-04-25T15:30:13.346Z,5.47
2024-04-25T15:32:40.716Z,5.32
2024-04-25T15:35:09.877Z,3.42
2024-04-25T15:37:38.871Z,5.03
2024-04-25T15:40:06.854Z,4.90
2024-04-25T15:42:34.059Z,3.88
2024-04-25T15:45:01.352Z,4.65
2024-04-25T15:47:28.764Z,4.05
2024-04-25T15:49:56.072Z,4.53
2024-04-25T15:52:23.599Z,4.75
2024-04-25T15:54:51.054Z,3.75
2024-04-25T15:57:18.498Z,6.07
2024-04-25T15:59:46.248Z,4.60
2024-04-25T16:02:15.905Z,4.90
2024-04-25T16:04:43.625Z,4.63
2024-04-25T16:07:10.947Z,3.85
2024-04-25T16:09:38.740Z,3.83
2024-04-25T16:12:07.317Z,3.47
2024-04-25T16:14:34.923Z,4.88
2024-04-25T16:17:02.224Z,8.55
2024-04-25T16:19:30.528Z,3.83
2024-04-25T16:22:01.197Z,3.63
2024-04-25T16:24:29.474Z,4.32
2024-04-25T16:26:56.773Z,4.53
2024-04-25T16:29:26.185Z,4.40
2024-04-25T16:31:53.929Z,4.05
2024-04-25T16:34:21.464Z,5.00
2024-04-25T16:36:51.078Z,5.15
2024-04-25T16:39:18.521Z,4.35
2024-04-25T16:41:45.873Z,4.10
2024-04-25T16:44:13.340Z,5.30
2024-04-25T16:46:41.583Z,5.00
2024-04-25T16:49:09.044Z,5.97
2024-04-25T16:51:36.406Z,5.05
2024-04-25T16:54:03.894Z,5.22
2024-04-25T16:56:34.945Z,5.85
2024-04-25T16:59:02.438Z,6.97
2024-04-25T17:01:30.318Z,5.85
2024-04-25T17:03:57.994Z,6.80
2024-04-25T17:06:25.414Z,5.00
2024-04-25T17:08:52.794Z,5.07
2024-04-25T17:11:29.225Z,4.93
2024-04-25T17:14:05.068Z,5.50
2024-04-25T17:16:33.142Z,5.63
2024-04-25T17:19:01.557Z,5.95
2024-04-25T17:21:29.162Z,5.15
2024-04-25T17:23:56.927Z,6.10
2024-04-25T17:26:24.623Z,5.43
2024-04-25T17:28:52.822Z,6.68
2024-04-25T17:31:20.862Z,4.50
2024-04-25T17:33:48.469Z,5.15
2024-04-25T17:36:17.567Z,5.18
2024-04-25T17:38:45.472Z,5.60
2024-04-25T17:41:13.625Z,5.43
2024-04-25T17:43:40.923Z,7.78
2024-04-25T17:46:08.317Z,5.13
2024-04-25T17:48:36.145Z,5.15
2024-04-25T17:51:03.713Z,9.38
2024-04-25T17:53:31.215Z,5.78
2024-04-25T17:55:58.561Z,6.47
2024-04-25T17:58:25.987Z,5.57
2024-04-25T18:00:53.727Z,5.53
2024-04-25T18:03:21.217Z,7.53
2024-04-25T18:05:48.570Z,6.03
2024-04-25T18:08:16.117Z,7.55
2024-04-25T18:10:44.198Z,9.57
2024-04-25T18:13:11.679Z,7.47
2024-04-25T18:15:40.003Z,9.18
2024-04-25T18:18:07.596Z,7.88
2024-04-25T18:20:35.307Z,11.63
2024-04-25T18:23:02.755Z,12.10
2024-04-25T18:25:30.073Z,11.45
2024-04-25T18:27:57.390Z,13.98
2024-04-25T18:30:25.170Z,9.63
2024-04-25T18:32:52.556Z,9.27
2024-04-25T18:35:20.448Z,8.27
2024-04-25T18:37:47.763Z,7.35
2024-04-25T18:40:15.137Z,6.55
2024-04-25T18:42:42.562Z,6.57
2024-04-25T18:45:10.091Z,6.03
2024-04-25T18:47:37.969Z,8.05
2024-04-25T18:50:06.945Z,7.80
2024-04-25T18:52:34.936Z,10.07
2024-04-25T18:55:02.317Z,8.13
2024-04-25T18:57:30.284Z,10.05
2024-04-25T18:59:57.689Z,10.70
2024-04-25T19:02:25.149Z,9.15
2024-04-25T19:04:52.866Z,8.63
2024-04-25T19:07:20.203Z,11.15
2024-04-25T19:09:53.034Z,13.90
2024-04-25T19:12:21.098Z,11.65
2024-04-25T19:14:51.403Z,12.65
2024-04-25T19:17:19.000Z,13.50
2024-04-25T19:19:47.733Z,13.32
2024-04-25T19:22:15.296Z,12.85
2024-04-25T19:24:44.989Z,15.40
2024-04-25T19:27:12.514Z,14.00
2024-04-25T19:29:39.873Z,16.35
2024-04-25T19:32:07.688Z,15.93
2024-04-25T19:34:35.474Z,14.57
2024-04-25T19:37:03.049Z,13.57
2024-04-25T19:39:30.656Z,13.55
2024-04-25T19:41:58.619Z,12.82
2024-04-25T19:44:26.004Z,15.70
2024-04-25T19:46:55.138Z,14.13
2024-04-25T19:49:23.022Z,27.67
2024-04-25T19:51:50.808Z,31.48
2024-04-25T19:54:19.915Z,38.15
2024-04-25T19:56:49.305Z,31.30
2024-04-25T19:59:17.437Z,30.17
2024-04-25T20:01:50.518Z,29.58
2024-04-25T20:04:22.183Z,26.20
2024-04-25T20:06:51.286Z,21.95
2024-04-25T20:09:19.565Z,19.48
2024-04-25T20:11:48.154Z,17.35
2024-04-25T20:14:15.742Z,16.02
2024-04-25T20:16:43.447Z,15.35
2024-04-25T20:19:30.786Z,15.43
2024-04-25T20:21:58.251Z,16.70
2024-04-25T20:24:25.718Z,13.30
2024-04-25T20:26:56.452Z,15.43
2024-04-25T20:29:26.100Z,13.90
2024-04-25T20:31:54.803Z,12.38
2024-04-25T20:34:23.819Z,12.82
2024-04-25T20:36:51.489Z,12.48
2024-04-25T20:39:18.782Z,13.07
2024-04-25T20:41:46.960Z,13.45
2024-04-25T20:44:14.344Z,13.30
2024-04-25T20:46:42.015Z,14.88
2024-04-25T20:49:09.641Z,12.88
2024-04-25T20:51:40.901Z,13.90
2024-04-25T20:54:09.253Z,14.70
2024-04-25T20:56:40.907Z,14.38
2024-04-25T20:59:08.289Z,15.38
2024-04-25T21:01:39.371Z,15.82
2024-04-25T21:04:07.300Z,14.02
2024-04-25T21:06:39.592Z,13.10
2024-04-25T21:09:07.178Z,14.05
2024-04-25T21:11:34.849Z,14.18
2024-04-25T21:14:02.536Z,15.05
2024-04-25T21:16:39.527Z,14.38
2024-04-25T21:19:07.903Z,15.95
2024-04-25T21:21:35.133Z,15.10
2024-04-25T21:24:02.747Z,18.42
2024-04-25T21:26:30.264Z,15.50
2024-04-25T21:28:58.976Z,13.68
2024-04-25T21:31:26.816Z,10.65
2024-04-25T21:33:54.534Z,8.32
2024-04-25T21:36:21.802Z,9.88
2024-04-25T21:38:49.232Z,10.15
2024-04-25T21:41:16.749Z,9.80
2024-04-25T21:43:44.615Z,10.45
2024-04-25T21:46:11.930Z,10.05
2024-04-25T21:48:39.422Z,8.50
2024-04-25T21:51:07.023Z,10.88
2024-04-25T21:53:34.302Z,12.02
2024-04-25T21:56:01.845Z,12.65
2024-04-25T21:58:29.070Z,12.90
2024-04-25T22:00:56.732Z,13.38
2024-04-25T22:03:23.959Z,11.32
2024-04-25T22:05:51.585Z,10.07
2024-04-25T22:08:19.222Z,10.15
2024-04-25T22:10:46.888Z,9.38
2024-04-25T22:13:14.255Z,8.82
2024-04-25T22:15:41.972Z,9.52
2024-04-25T22:18:10.180Z,9.48
2024-04-25T22:20:38.020Z,8.90
2024-04-25T22:23:05.700Z,9.98
2024-04-25T22:25:33.501Z,10.82
2024-04-25T22:28:00.801Z,10.27
2024-04-25T22:30:28.369Z,9.40
2024-04-25T22:32:56.239Z,9.38
2024-04-25T22:35:24.020Z,9.32
2024-04-25T22:37:51.592Z,10.00
2024-04-25T22:40:19.522Z,10.48
2024-04-25T22:42:46.916Z,14.13
2024-04-25T22:45:21.642Z,12.68
2024-04-25T22:47:52.484Z,13.35
2024-04-25T22:50:19.928Z,12.23
2024-04-25T22:52:47.159Z,9.93
2024-04-25T22:55:14.595Z,9.73
2024-04-25T22:57:41.955Z,9.25
2024-04-25T23:00:10.080Z,11.45
2024-04-25T23:02:37.546Z,12.60
2024-04-25T23:05:05.385Z,9.90
2024-04-25T23:07:32.912Z,10.50
2024-04-25T23:10:00.770Z,11.63
2024-04-25T23:12:28.563Z,10.73
2024-04-25T23:14:56.029Z,10.32
2024-04-25T23:17:24.532Z,10.63
2024-04-25T23:19:53.040Z,10.10
2024-04-25T23:22:20.533Z,10.10
2024-04-25T23:24:48.016Z,10.48
2024-04-25T23:27:15.560Z,10.20
2024-04-25T23:29:42.786Z,13.73
2024-04-25T23:32:10.191Z,11.20
2024-04-25T23:34:38.282Z,17.42
2024-04-25T23:37:05.630Z,16.80
2024-04-25T23:39:36.214Z,13.95
2024-04-25T23:42:03.650Z,12.57
2024-04-25T23:44:31.048Z,14.88
2024-04-25T23:46:58.340Z,15.40
2024-04-25T23:49:25.777Z,14.15
2024-04-25T23:51:53.142Z,10.50
2024-04-25T23:54:20.557Z,13.45
2024-04-25T23:56:48.096Z,10.68
2024-04-25T23:59:15.697Z,12.23
